sensor_id;sensor_type;location;lat;lon;timestamp;pressure;altitude;pressure_sealevel;temperature;humidity
51530;BME280;37613;51.788;21.582;2024-02-23T00:00:59;98229.11;;;6.91;96.45
51530;BME280;37613;51.788;21.582;2024-02-23T00:05:21;98226.52;;;6.92;96.25
51530;BME280;37613;51.788;21.582;2024-02-23T00:09:27;98223.76;;;6.93;96.51
51530;BME280;37613;51.788;21.582;2024-02-23T00:13:29;98222.10;;;6.94;96.81
51530;BME280;37613;51.788;21.582;2024-02-23T00:17:31;98213.68;;;6.94;96.91
51530;BME280;37613;51.788;21.582;2024-02-23T00:21:33;98207.77;;;6.96;97.15
51530;BME280;37613;51.788;21.582;2024-02-23T00:25:35;98204.61;;;6.97;97.28
51530;BME280;37613;51.788;21.582;2024-02-23T00:29:37;98203.48;;;6.97;97.34
51530;BME280;37613;51.788;21.582;2024-02-23T00:33:39;98199.92;;;6.99;97.47
51530;BME280;37613;51.788;21.582;2024-02-23T00:37:43;98198.98;;;7.03;97.57
51530;BME280;37613;51.788;21.582;2024-02-23T00:41:46;98201.44;;;7.07;97.59
51530;BME280;37613;51.788;21.582;2024-02-23T00:45:48;98200.45;;;7.10;98.01
51530;BME280;37613;51.788;21.582;2024-02-23T00:49:50;98201.33;;;7.13;98.15
51530;BME280;37613;51.788;21.582;2024-02-23T00:53:52;98193.90;;;7.15;97.80
51530;BME280;37613;51.788;21.582;2024-02-23T00:57:54;98185.70;;;7.17;98.04
51530;BME280;37613;51.788;21.582;2024-02-23T01:01:56;98182.82;;;7.20;98.11
51530;BME280;37613;51.788;21.582;2024-02-23T01:05:58;98177.51;;;7.22;98.09
51530;BME280;37613;51.788;21.582;2024-02-23T01:10:00;98178.88;;;7.25;98.27
51530;BME280;37613;51.788;21.582;2024-02-23T01:14:02;98170.89;;;7.28;98.41
51530;BME280;37613;51.788;21.582;2024-02-23T01:18:04;98165.50;;;7.30;98.54
51530;BME280;37613;51.788;21.582;2024-02-23T01:22:09;98170.83;;;7.31;98.70
51530;BME280;37613;51.788;21.582;2024-02-23T01:26:11;98166.58;;;7.31;98.66
51530;BME280;37613;51.788;21.582;2024-02-23T01:30:13;98160.52;;;7.33;98.71
51530;BME280;37613;51.788;21.582;2024-02-23T01:34:15;98159.08;;;7.33;98.77
51530;BME280;37613;51.788;21.582;2024-02-23T01:38:17;98157.23;;;7.32;98.82
51530;BME280;37613;51.788;21.582;2024-02-23T01:42:22;98152.92;;;7.30;98.91
51530;BME280;37613;51.788;21.582;2024-02-23T01:46:26;98150.42;;;7.29;99.18
51530;BME280;37613;51.788;21.582;2024-02-23T01:50:29;98151.67;;;7.29;99.15
51530;BME280;37613;51.788;21.582;2024-02-23T01:54:31;98148.71;;;7.29;99.37
51530;BME280;37613;51.788;21.582;2024-02-23T01:58:35;98150.70;;;7.28;99.59
51530;BME280;37613;51.788;21.582;2024-02-23T02:02:38;98149.36;;;7.28;99.41
51530;BME280;37613;51.788;21.582;2024-02-23T02:06:41;98146.67;;;7.28;99.51
51530;BME280;37613;51.788;21.582;2024-02-23T02:10:43;98145.25;;;7.29;99.58
51530;BME280;37613;51.788;21.582;2024-02-23T02:14:47;98140.52;;;7.29;99.53
51530;BME280;37613;51.788;21.582;2024-02-23T02:18:49;98138.29;;;7.31;99.80
51530;BME280;37613;51.788;21.582;2024-02-23T02:22:52;98137.98;;;7.32;99.90
51530;BME280;37613;51.788;21.582;2024-02-23T02:26:54;98138.05;;;7.32;99.97
51530;BME280;37613;51.788;21.582;2024-02-23T02:30:56;98135.44;;;7.33;100.00
51530;BME280;37613;51.788;21.582;2024-02-23T02:34:58;98141.24;;;7.33;99.99
51530;BME280;37613;51.788;21.582;2024-02-23T02:39:00;98138.81;;;7.33;100.00
51530;BME280;37613;51.788;21.582;2024-02-23T02:43:03;98139.55;;;7.35;100.00
51530;BME280;37613;51.788;21.582;2024-02-23T02:47:05;98136.85;;;7.36;100.00
51530;BME280;37613;51.788;21.582;2024-02-23T02:51:08;98135.77;;;7.39;100.00
51530;BME280;37613;51.788;21.582;2024-02-23T02:55:10;98136.06;;;7.41;100.00
51530;BME280;37613;51.788;21.582;2024-02-23T02:59:12;98139.16;;;7.43;100.00
51530;BME280;37613;51.788;21.582;2024-02-23T03:03:14;98143.95;;;7.46;100.00
51530;BME280;37613;51.788;21.582;2024-02-23T03:07:17;98140.23;;;7.47;100.00
51530;BME280;37613;51.788;21.582;2024-02-23T03:11:19;98139.15;;;7.50;100.00
51530;BME280;37613;51.788;21.582;2024-02-23T03:15:21;98143.80;;;7.54;100.00
51530;BME280;37613;51.788;21.582;2024-02-23T03:19:23;98146.63;;;7.58;100.00
51530;BME280;37613;51.788;21.582;2024-02-23T03:23:25;98155.05;;;7.61;100.00
51530;BME280;37613;51.788;21.582;2024-02-23T03:27:28;98154.13;;;7.64;100.00
51530;BME280;37613;51.788;21.582;2024-02-23T03:31:31;98153.69;;;7.66;100.00
51530;BME280;37613;51.788;21.582;2024-02-23T03:35:33;98155.77;;;7.65;100.00
51530;BME280;37613;51.788;21.582;2024-02-23T03:39:35;98159.09;;;7.63;100.00
51530;BME280;37613;51.788;21.582;2024-02-23T03:43:38;98161.26;;;7.58;100.00
51530;BME280;37613;51.788;21.582;2024-02-23T03:47:40;98163.66;;;7.51;100.00
51530;BME280;37613;51.788;21.582;2024-02-23T03:51:42;98168.03;;;7.45;100.00
51530;BME280;37613;51.788;21.582;2024-02-23T03:55:44;98168.80;;;7.38;100.00
51530;BME280;37613;51.788;21.582;2024-02-23T03:59:53;98176.94;;;7.31;100.00
51530;BME280;37613;51.788;21.582;2024-02-23T04:03:55;98179.11;;;7.25;100.00
51530;BME280;37613;51.788;21.582;2024-02-23T04:07:57;98180.04;;;7.21;100.00
51530;BME280;37613;51.788;21.582;2024-02-23T04:11:59;98184.45;;;7.17;100.00
51530;BME280;37613;51.788;21.582;2024-02-23T04:16:01;98189.87;;;7.12;100.00
51530;BME280;37613;51.788;21.582;2024-02-23T04:20:08;98192.70;;;7.09;100.00
51530;BME280;37613;51.788;21.582;2024-02-23T04:24:14;98193.77;;;7.05;100.00
51530;BME280;37613;51.788;21.582;2024-02-23T04:28:16;98194.21;;;7.03;100.00
51530;BME280;37613;51.788;21.582;2024-02-23T04:32:19;98192.35;;;7.02;100.00
51530;BME280;37613;51.788;21.582;2024-02-23T04:36:21;98194.48;;;7.01;100.00
51530;BME280;37613;51.788;21.582;2024-02-23T04:40:23;98197.25;;;6.99;100.00
51530;BME280;37613;51.788;21.582;2024-02-23T04:44:25;98200.52;;;6.97;100.00
51530;BME280;37613;51.788;21.582;2024-02-23T04:48:27;98197.73;;;6.95;100.00
51530;BME280;37613;51.788;21.582;2024-02-23T04:52:32;98200.05;;;6.92;100.00
51530;BME280;37613;51.788;21.582;2024-02-23T04:56:34;98200.34;;;6.89;100.00
51530;BME280;37613;51.788;21.582;2024-02-23T05:00:36;98208.17;;;6.86;100.00
51530;BME280;37613;51.788;21.582;2024-02-23T05:04:38;98216.55;;;6.82;100.00
51530;BME280;37613;51.788;21.582;2024-02-23T05:08:40;98219.14;;;6.78;100.00
51530;BME280;37613;51.788;21.582;2024-02-23T05:12:42;98220.83;;;6.75;100.00
51530;BME280;37613;51.788;21.582;2024-02-23T05:16:44;98223.78;;;6.72;100.00
51530;BME280;37613;51.788;21.582;2024-02-23T05:20:46;98228.70;;;6.68;100.00
51530;BME280;37613;51.788;21.582;2024-02-23T05:24:48;98232.90;;;6.66;100.00
51530;BME280;37613;51.788;21.582;2024-02-23T05:28:50;98240.42;;;6.63;100.00
51530;BME280;37613;51.788;21.582;2024-02-23T05:32:55;98241.77;;;6.61;100.00
51530;BME280;37613;51.788;21.582;2024-02-23T05:36:57;98251.83;;;6.60;100.00
51530;BME280;37613;51.788;21.582;2024-02-23T05:40:59;98260.02;;;6.59;100.00
51530;BME280;37613;51.788;21.582;2024-02-23T05:45:02;98264.30;;;6.57;100.00
51530;BME280;37613;51.788;21.582;2024-02-23T05:49:06;98266.67;;;6.55;100.00
51530;BME280;37613;51.788;21.582;2024-02-23T05:53:08;98267.24;;;6.55;100.00
51530;BME280;37613;51.788;21.582;2024-02-23T05:57:10;98277.27;;;6.55;100.00
51530;BME280;37613;51.788;21.582;2024-02-23T06:01:12;98279.55;;;6.55;100.00
51530;BME280;37613;51.788;21.582;2024-02-23T06:05:14;98290.62;;;6.55;100.00
51530;BME280;37613;51.788;21.582;2024-02-23T06:09:16;98298.09;;;6.54;100.00
51530;BME280;37613;51.788;21.582;2024-02-23T06:13:18;98303.73;;;6.55;100.00
51530;BME280;37613;51.788;21.582;2024-02-23T06:17:20;98312.91;;;6.55;100.00
51530;BME280;37613;51.788;21.582;2024-02-23T06:21:22;98324.21;;;6.55;100.00
51530;BME280;37613;51.788;21.582;2024-02-23T06:25:24;98328.60;;;6.55;100.00
51530;BME280;37613;51.788;21.582;2024-02-23T06:29:26;98335.73;;;6.56;100.00
51530;BME280;37613;51.788;21.582;2024-02-23T06:33:30;98337.38;;;6.57;100.00
51530;BME280;37613;51.788;21.582;2024-02-23T06:37:32;98341.27;;;6.59;100.00
51530;BME280;37613;51.788;21.582;2024-02-23T06:41:35;98345.55;;;6.61;100.00
51530;BME280;37613;51.788;21.582;2024-02-23T06:45:37;98345.84;;;6.63;100.00
51530;BME280;37613;51.788;21.582;2024-02-23T06:49:42;98347.13;;;6.67;100.00
51530;BME280;37613;51.788;21.582;2024-02-23T06:53:45;98344.35;;;6.69;100.00
51530;BME280;37613;51.788;21.582;2024-02-23T06:57:47;98350.63;;;6.70;100.00
51530;BME280;37613;51.788;21.582;2024-02-23T07:01:50;98353.02;;;6.72;100.00
51530;BME280;37613;51.788;21.582;2024-02-23T07:05:52;98358.09;;;6.74;100.00
51530;BME280;37613;51.788;21.582;2024-02-23T07:09:54;98365.52;;;6.77;100.00
51530;BME280;37613;51.788;21.582;2024-02-23T07:13:57;98372.96;;;6.79;100.00
51530;BME280;37613;51.788;21.582;2024-02-23T07:17:59;98375.34;;;6.82;100.00
51530;BME280;37613;51.788;21.582;2024-02-23T07:22:01;98379.45;;;6.85;100.00
51530;BME280;37613;51.788;21.582;2024-02-23T07:26:03;98381.31;;;6.92;100.00
51530;BME280;37613;51.788;21.582;2024-02-23T07:30:06;98381.45;;;6.95;100.00
51530;BME280;37613;51.788;21.582;2024-02-23T07:34:08;98386.90;;;6.97;100.00
51530;BME280;37613;51.788;21.582;2024-02-23T07:38:10;98394.17;;;6.99;100.00
51530;BME280;37613;51.788;21.582;2024-02-23T07:42:12;98400.05;;;7.02;100.00
51530;BME280;37613;51.788;21.582;2024-02-23T07:46:16;98404.69;;;7.00;100.00
51530;BME280;37613;51.788;21.582;2024-02-23T07:50:18;98407.08;;;7.04;100.00
51530;BME280;37613;51.788;21.582;2024-02-23T07:54:20;98411.25;;;7.10;100.00
51530;BME280;37613;51.788;21.582;2024-02-23T07:58:22;98414.27;;;7.12;100.00
51530;BME280;37613;51.788;21.582;2024-02-23T08:02:24;98415.20;;;7.12;100.00
51530;BME280;37613;51.788;21.582;2024-02-23T08:06:26;98416.12;;;7.14;100.00
51530;BME280;37613;51.788;21.582;2024-02-23T08:10:28;98421.28;;;7.15;100.00
51530;BME280;37613;51.788;21.582;2024-02-23T08:14:30;98432.09;;;7.18;100.00
51530;BME280;37613;51.788;21.582;2024-02-23T08:18:32;98435.11;;;7.21;100.00
51530;BME280;37613;51.788;21.582;2024-02-23T08:22:34;98434.98;;;7.20;100.00
51530;BME280;37613;51.788;21.582;2024-02-23T08:26:36;98440.94;;;7.20;100.00
51530;BME280;37613;51.788;21.582;2024-02-23T08:30:39;98441.07;;;7.22;100.00
51530;BME280;37613;51.788;21.582;2024-02-23T08:34:41;98441.05;;;7.23;100.00
51530;BME280;37613;51.788;21.582;2024-02-23T08:38:43;98447.45;;;7.27;100.00
51530;BME280;37613;51.788;21.582;2024-02-23T08:42:46;98451.14;;;7.33;100.00
51530;BME280;37613;51.788;21.582;2024-02-23T08:46:48;98461.66;;;7.38;100.00
51530;BME280;37613;51.788;21.582;2024-02-23T08:50:51;98472.18;;;7.40;100.00
51530;BME280;37613;51.788;21.582;2024-02-23T08:54:53;98472.47;;;7.41;100.00
51530;BME280;37613;51.788;21.582;2024-02-23T08:58:55;98470.94;;;7.43;100.00
51530;BME280;37613;51.788;21.582;2024-02-23T09:02:57;98471.07;;;7.45;100.00
51530;BME280;37613;51.788;21.582;2024-02-23T09:06:59;98473.80;;;7.47;100.00
51530;BME280;37613;51.788;21.582;2024-02-23T09:11:02;98479.05;;;7.48;100.00
51530;BME280;37613;51.788;21.582;2024-02-23T09:15:04;98481.24;;;7.49;100.00
51530;BME280;37613;51.788;21.582;2024-02-23T09:19:07;98484.15;;;7.49;100.00
51530;BME280;37613;51.788;21.582;2024-02-23T09:23:09;98493.52;;;7.48;100.00
51530;BME280;37613;51.788;21.582;2024-02-23T09:27:11;98498.48;;;7.47;100.00
51530;BME280;37613;51.788;21.582;2024-02-23T09:31:13;98495.55;;;7.49;100.00
51530;BME280;37613;51.788;21.582;2024-02-23T09:35:15;98497.17;;;7.50;100.00
51530;BME280;37613;51.788;21.582;2024-02-23T09:39:17;98501.40;;;7.51;100.00
51530;BME280;37613;51.788;21.582;2024-02-23T09:43:22;98506.84;;;7.50;100.00
51530;BME280;37613;51.788;21.582;2024-02-23T09:47:26;98506.85;;;7.49;100.00
51530;BME280;37613;51.788;21.582;2024-02-23T09:51:30;98512.34;;;7.50;100.00
51530;BME280;37613;51.788;21.582;2024-02-23T09:55:34;98517.21;;;7.56;100.00
51530;BME280;37613;51.788;21.582;2024-02-23T09:59:36;98518.42;;;7.65;100.00
51530;BME280;37613;51.788;21.582;2024-02-23T10:03:39;98522.20;;;7.69;100.00
51530;BME280;37613;51.788;21.582;2024-02-23T10:07:41;98530.54;;;7.65;100.00
51530;BME280;37613;51.788;21.582;2024-02-23T10:11:43;98532.36;;;7.64;100.00
51530;BME280;37613;51.788;21.582;2024-02-23T10:15:45;98528.77;;;7.63;100.00
51530;BME280;37613;51.788;21.582;2024-02-23T10:19:47;98528.44;;;7.64;100.00
51530;BME280;37613;51.788;21.582;2024-02-23T10:23:49;98529.61;;;7.64;100.00
51530;BME280;37613;51.788;21.582;2024-02-23T10:27:52;98535.00;;;7.65;100.00
51530;BME280;37613;51.788;21.582;2024-02-23T10:31:58;98537.17;;;7.68;100.00
51530;BME280;37613;51.788;21.582;2024-02-23T10:36:00;98541.89;;;7.68;100.00
51530;BME280;37613;51.788;21.582;2024-02-23T10:40:06;98549.59;;;7.68;100.00
51530;BME280;37613;51.788;21.582;2024-02-23T10:44:11;98549.89;;;7.69;100.00
51530;BME280;37613;51.788;21.582;2024-02-23T10:48:15;98551.21;;;7.70;100.00
51530;BME280;37613;51.788;21.582;2024-02-23T10:52:18;98552.92;;;7.72;100.00
51530;BME280;37613;51.788;21.582;2024-02-23T10:56:20;98557.27;;;7.75;100.00
51530;BME280;37613;51.788;21.582;2024-02-23T11:00:24;98561.52;;;7.90;100.00
51530;BME280;37613;51.788;21.582;2024-02-23T11:04:27;98564.71;;;7.94;100.00
51530;BME280;37613;51.788;21.582;2024-02-23T11:08:35;98568.91;;;7.91;100.00
51530;BME280;37613;51.788;21.582;2024-02-23T11:12:40;98572.92;;;7.87;100.00
51530;BME280;37613;51.788;21.582;2024-02-23T11:16:42;98574.19;;;7.86;100.00
51530;BME280;37613;51.788;21.582;2024-02-23T11:21:05;98576.83;;;7.89;100.00
51530;BME280;37613;51.788;21.582;2024-02-23T11:25:08;98579.36;;;7.91;100.00
51530;BME280;37613;51.788;21.582;2024-02-23T11:29:12;98577.85;;;7.93;100.00
51530;BME280;37613;51.788;21.582;2024-02-23T11:33:52;98582.48;;;7.95;100.00
51530;BME280;37613;51.788;21.582;2024-02-23T11:37:55;98590.27;;;7.99;100.00
51530;BME280;37613;51.788;21.582;2024-02-23T11:42:04;98597.16;;;8.02;100.00
51530;BME280;37613;51.788;21.582;2024-02-23T11:46:08;98601.20;;;8.05;100.00
51530;BME280;37613;51.788;21.582;2024-02-23T11:50:11;98604.99;;;8.08;100.00
51530;BME280;37613;51.788;21.582;2024-02-23T11:54:13;98608.99;;;8.10;100.00
51530;BME280;37613;51.788;21.582;2024-02-23T11:58:16;98616.14;;;8.12;100.00
51530;BME280;37613;51.788;21.582;2024-02-23T12:02:19;98622.21;;;8.10;100.00
51530;BME280;37613;51.788;21.582;2024-02-23T12:06:21;98627.70;;;8.11;100.00
51530;BME280;37613;51.788;21.582;2024-02-23T12:10:24;98624.52;;;8.14;100.00
51530;BME280;37613;51.788;21.582;2024-02-23T12:14:28;98623.52;;;8.17;100.00
51530;BME280;37613;51.788;21.582;2024-02-23T12:18:34;98624.67;;;8.19;100.00
51530;BME280;37613;51.788;21.582;2024-02-23T12:22:36;98630.52;;;8.22;100.00
51530;BME280;37613;51.788;21.582;2024-02-23T12:26:38;98636.08;;;8.25;100.00
51530;BME280;37613;51.788;21.582;2024-02-23T12:30:40;98641.45;;;8.28;100.00
51530;BME280;37613;51.788;21.582;2024-02-23T12:34:44;98641.77;;;8.33;100.00
51530;BME280;37613;51.788;21.582;2024-02-23T12:38:45;98640.23;;;8.37;100.00
51530;BME280;37613;51.788;21.582;2024-02-23T12:42:47;98632.91;;;8.43;100.00
51530;BME280;37613;51.788;21.582;2024-02-23T12:46:50;98634.20;;;8.45;100.00
51530;BME280;37613;51.788;21.582;2024-02-23T12:50:52;98634.07;;;8.48;100.00
51530;BME280;37613;51.788;21.582;2024-02-23T12:54:55;98636.34;;;8.50;100.00
51530;BME280;37613;51.788;21.582;2024-02-23T12:58:57;98642.39;;;8.50;100.00
51530;BME280;37613;51.788;21.582;2024-02-23T13:02:59;98646.44;;;8.49;100.00
51530;BME280;37613;51.788;21.582;2024-02-23T13:07:01;98649.47;;;8.51;100.00
51530;BME280;37613;51.788;21.582;2024-02-23T13:11:04;98654.70;;;8.49;100.00
51530;BME280;37613;51.788;21.582;2024-02-23T13:15:07;98652.94;;;8.46;100.00
51530;BME280;37613;51.788;21.582;2024-02-23T13:19:09;98657.48;;;8.43;100.00
51530;BME280;37613;51.788;21.582;2024-02-23T13:23:12;98663.68;;;8.38;100.00
51530;BME280;37613;51.788;21.582;2024-02-23T13:27:15;98672.76;;;8.37;100.00
51530;BME280;37613;51.788;21.582;2024-02-23T13:31:18;98679.29;;;8.37;100.00
51530;BME280;37613;51.788;21.582;2024-02-23T13:35:20;98679.21;;;8.36;100.00
51530;BME280;37613;51.788;21.582;2024-02-23T13:39:23;98679.89;;;8.38;100.00
51530;BME280;37613;51.788;21.582;2024-02-23T13:43:25;98684.98;;;8.40;100.00
51530;BME280;37613;51.788;21.582;2024-02-23T13:47:27;98694.70;;;8.43;100.00
51530;BME280;37613;51.788;21.582;2024-02-23T13:51:29;98702.73;;;8.48;100.00
51530;BME280;37613;51.788;21.582;2024-02-23T13:55:32;98704.96;;;8.52;100.00
51530;BME280;37613;51.788;21.582;2024-02-23T13:59:34;98710.19;;;8.54;100.00
51530;BME280;37613;51.788;21.582;2024-02-23T14:03:36;98711.52;;;8.55;100.00
51530;BME280;37613;51.788;21.582;2024-02-23T14:07:38;98699.94;;;8.55;100.00
51530;BME280;37613;51.788;21.582;2024-02-23T14:11:40;98699.07;;;8.55;100.00
51530;BME280;37613;51.788;21.582;2024-02-23T14:15:42;98688.73;;;8.58;100.00
51530;BME280;37613;51.788;21.582;2024-02-23T14:19:44;98682.89;;;8.63;100.00
51530;BME280;37613;51.788;21.582;2024-02-23T14:23:46;98683.95;;;8.66;100.00
51530;BME280;37613;51.788;21.582;2024-02-23T14:27:48;98688.46;;;8.64;100.00
51530;BME280;37613;51.788;21.582;2024-02-23T14:31:50;98701.50;;;8.61;100.00
51530;BME280;37613;51.788;21.582;2024-02-23T14:35:52;98706.84;;;8.58;100.00
51530;BME280;37613;51.788;21.582;2024-02-23T14:39:55;98715.45;;;8.55;100.00
51530;BME280;37613;51.788;21.582;2024-02-23T14:43:57;98728.11;;;8.52;100.00
51530;BME280;37613;51.788;21.582;2024-02-23T14:47:59;98739.73;;;8.48;100.00
51530;BME280;37613;51.788;21.582;2024-02-23T14:52:01;98736.84;;;8.48;100.00
51530;BME280;37613;51.788;21.582;2024-02-23T14:56:04;98738.89;;;8.47;100.00
51530;BME280;37613;51.788;21.582;2024-02-23T15:00:07;98738.05;;;8.45;100.00
51530;BME280;37613;51.788;21.582;2024-02-23T15:04:09;98737.94;;;8.43;100.00
51530;BME280;37613;51.788;21.582;2024-02-23T15:08:12;98737.41;;;8.40;100.00
51530;BME280;37613;51.788;21.582;2024-02-23T15:12:14;98742.30;;;8.39;100.00
51530;BME280;37613;51.788;21.582;2024-02-23T15:16:16;98758.45;;;8.39;100.00
51530;BME280;37613;51.788;21.582;2024-02-23T15:20:18;98764.36;;;8.40;100.00
51530;BME280;37613;51.788;21.582;2024-02-23T15:24:21;98763.70;;;8.42;100.00
51530;BME280;37613;51.788;21.582;2024-02-23T15:28:26;98764.72;;;8.43;100.00
51530;BME280;37613;51.788;21.582;2024-02-23T15:32:28;98769.31;;;8.41;100.00
51530;BME280;37613;51.788;21.582;2024-02-23T15:36:30;98772.63;;;8.41;100.00
51530;BME280;37613;51.788;21.582;2024-02-23T15:40:33;98778.05;;;8.40;100.00
51530;BME280;37613;51.788;21.582;2024-02-23T15:44:35;98775.16;;;8.38;100.00
51530;BME280;37613;51.788;21.582;2024-02-23T15:48:37;98776.23;;;8.35;100.00
51530;BME280;37613;51.788;21.582;2024-02-23T15:52:39;98778.20;;;8.32;100.00
51530;BME280;37613;51.788;21.582;2024-02-23T15:56:41;98778.03;;;8.28;100.00
51530;BME280;37613;51.788;21.582;2024-02-23T16:00:44;98779.64;;;8.25;100.00
51530;BME280;37613;51.788;21.582;2024-02-23T16:04:46;98785.33;;;8.23;100.00
51530;BME280;37613;51.788;21.582;2024-02-23T16:08:49;98795.80;;;8.22;100.00
51530;BME280;37613;51.788;21.582;2024-02-23T16:12:52;98794.34;;;8.20;100.00
51530;BME280;37613;51.788;21.582;2024-02-23T16:16:54;98800.36;;;8.18;100.00
51530;BME280;37613;51.788;21.582;2024-02-23T16:20:56;98809.02;;;8.17;100.00
51530;BME280;37613;51.788;21.582;2024-02-23T16:24:58;98816.11;;;8.16;100.00
51530;BME280;37613;51.788;21.582;2024-02-23T16:29:01;98822.20;;;8.15;100.00
51530;BME280;37613;51.788;21.582;2024-02-23T16:33:03;98833.26;;;8.12;100.00
51530;BME280;37613;51.788;21.582;2024-02-23T16:37:05;98838.39;;;8.10;100.00
51530;BME280;37613;51.788;21.582;2024-02-23T16:41:07;98846.58;;;8.08;100.00
51530;BME280;37613;51.788;21.582;2024-02-23T16:45:10;98848.63;;;8.08;100.00
51530;BME280;37613;51.788;21.582;2024-02-23T16:49:12;98854.06;;;8.08;100.00
51530;BME280;37613;51.788;21.582;2024-02-23T16:53:14;98857.69;;;8.07;100.00
51530;BME280;37613;51.788;21.582;2024-02-23T16:57:16;98856.14;;;8.06;100.00
51530;BME280;37613;51.788;21.582;2024-02-23T17:01:18;98858.17;;;8.06;100.00
51530;BME280;37613;51.788;21.582;2024-02-23T17:05:21;98862.45;;;8.05;100.00
51530;BME280;37613;51.788;21.582;2024-02-23T17:09:23;98860.63;;;8.06;100.00
51530;BME280;37613;51.788;21.582;2024-02-23T17:13:25;98858.52;;;8.11;100.00
51530;BME280;37613;51.788;21.582;2024-02-23T17:17:27;98860.65;;;8.12;100.00
51530;BME280;37613;51.788;21.582;2024-02-23T17:21:30;98862.87;;;8.11;100.00
51530;BME280;37613;51.788;21.582;2024-02-23T17:25:32;98862.80;;;8.09;100.00
51530;BME280;37613;51.788;21.582;2024-02-23T17:29:34;98861.06;;;8.09;100.00
51530;BME280;37613;51.788;21.582;2024-02-23T17:33:36;98865.31;;;8.09;100.00
51530;BME280;37613;51.788;21.582;2024-02-23T17:37:38;98859.26;;;8.08;100.00
51530;BME280;37613;51.788;21.582;2024-02-23T17:41:40;98856.13;;;8.07;100.00
51530;BME280;37613;51.788;21.582;2024-02-23T17:45:42;98863.92;;;8.06;100.00
51530;BME280;37613;51.788;21.582;2024-02-23T17:49:45;98860.33;;;8.05;100.00
51530;BME280;37613;51.788;21.582;2024-02-23T17:53:49;98856.80;;;8.04;100.00
51530;BME280;37613;51.788;21.582;2024-02-23T17:57:51;98859.17;;;8.03;100.00
51530;BME280;37613;51.788;21.582;2024-02-23T18:01:53;98866.98;;;8.02;100.00
51530;BME280;37613;51.788;21.582;2024-02-23T18:05:56;98864.30;;;8.00;100.00
51530;BME280;37613;51.788;21.582;2024-02-23T18:09:58;98865.92;;;7.97;100.00
51530;BME280;37613;51.788;21.582;2024-02-23T18:14:00;98872.16;;;7.96;100.00
51530;BME280;37613;51.788;21.582;2024-02-23T18:18:02;98878.86;;;7.95;100.00
51530;BME280;37613;51.788;21.582;2024-02-23T18:22:04;98875.73;;;7.94;100.00
51530;BME280;37613;51.788;21.582;2024-02-23T18:26:06;98871.08;;;7.93;100.00
51530;BME280;37613;51.788;21.582;2024-02-23T18:30:08;98875.48;;;7.92;100.00
51530;BME280;37613;51.788;21.582;2024-02-23T18:34:11;98880.70;;;7.90;100.00
51530;BME280;37613;51.788;21.582;2024-02-23T18:38:13;98879.70;;;7.89;100.00
51530;BME280;37613;51.788;21.582;2024-02-23T18:42:15;98883.02;;;7.89;100.00
51530;BME280;37613;51.788;21.582;2024-02-23T18:46:17;98884.69;;;7.87;100.00
51530;BME280;37613;51.788;21.582;2024-02-23T18:50:19;98883.20;;;7.87;100.00
51530;BME280;37613;51.788;21.582;2024-02-23T18:54:21;98879.50;;;7.86;100.00
51530;BME280;37613;51.788;21.582;2024-02-23T18:58:23;98877.29;;;7.85;100.00
51530;BME280;37613;51.788;21.582;2024-02-23T19:02:25;98880.90;;;7.86;100.00
51530;BME280;37613;51.788;21.582;2024-02-23T19:06:27;98883.67;;;7.86;100.00
51530;BME280;37613;51.788;21.582;2024-02-23T19:10:29;98890.58;;;7.86;100.00
51530;BME280;37613;51.788;21.582;2024-02-23T19:14:32;98892.95;;;7.85;100.00
51530;BME280;37613;51.788;21.582;2024-02-23T19:18:34;98887.69;;;7.84;100.00
51530;BME280;37613;51.788;21.582;2024-02-23T19:22:36;98885.35;;;7.81;100.00
51530;BME280;37613;51.788;21.582;2024-02-23T19:26:39;98884.59;;;7.79;100.00
51530;BME280;37613;51.788;21.582;2024-02-23T19:30:41;98888.30;;;7.79;100.00
51530;BME280;37613;51.788;21.582;2024-02-23T19:34:44;98900.58;;;7.78;100.00
51530;BME280;37613;51.788;21.582;2024-02-23T19:38:46;98912.59;;;7.78;100.00
51530;BME280;37613;51.788;21.582;2024-02-23T19:42:52;98923.32;;;7.76;100.00
51530;BME280;37613;51.788;21.582;2024-02-23T19:46:55;98927.50;;;7.75;100.00
51530;BME280;37613;51.788;21.582;2024-02-23T19:50:57;98925.47;;;7.74;100.00
51530;BME280;37613;51.788;21.582;2024-02-23T19:54:59;98928.70;;;7.73;100.00
51530;BME280;37613;51.788;21.582;2024-02-23T19:59:02;98932.65;;;7.72;100.00
51530;BME280;37613;51.788;21.582;2024-02-23T20:03:04;98933.67;;;7.72;100.00
51530;BME280;37613;51.788;21.582;2024-02-23T20:07:06;98938.39;;;7.72;100.00
51530;BME280;37613;51.788;21.582;2024-02-23T20:11:14;98939.80;;;7.72;100.00
51530;BME280;37613;51.788;21.582;2024-02-23T20:15:16;98943.58;;;7.73;100.00
51530;BME280;37613;51.788;21.582;2024-02-23T20:19:18;98936.89;;;7.73;100.00
51530;BME280;37613;51.788;21.582;2024-02-23T20:23:20;98934.20;;;7.73;100.00
51530;BME280;37613;51.788;21.582;2024-02-23T20:27:22;98927.21;;;7.73;100.00
51530;BME280;37613;51.788;21.582;2024-02-23T20:31:24;98930.44;;;7.72;100.00
51530;BME280;37613;51.788;21.582;2024-02-23T20:35:26;98931.79;;;7.72;100.00
51530;BME280;37613;51.788;21.582;2024-02-23T20:39:28;98922.02;;;7.72;100.00
51530;BME280;37613;51.788;21.582;2024-02-23T20:43:30;98921.73;;;7.71;100.00
51530;BME280;37613;51.788;21.582;2024-02-23T20:47:32;98920.39;;;7.70;100.00
51530;BME280;37613;51.788;21.582;2024-02-23T20:51:34;98917.17;;;7.68;100.00
51530;BME280;37613;51.788;21.582;2024-02-23T20:55:36;98912.34;;;7.65;100.00
51530;BME280;37613;51.788;21.582;2024-02-23T20:59:39;98919.67;;;7.62;100.00
51530;BME280;37613;51.788;21.582;2024-02-23T21:03:41;98914.38;;;7.57;100.00
51530;BME280;37613;51.788;21.582;2024-02-23T21:07:43;98913.70;;;7.52;100.00